Time;durP1;ratioP1;P1;durP2;ratioP2;P2;SDS_P1;SDS_P2;PMS_P1;PMS_P2;Temp;Humidity;BMP_temperature;BMP_pressure;BME280_temperature;BME280_humidity;BME280_pressure;Samples;Min_cycle;Max_cycle;Signal;HPM_P1;HPM_P2
2023/09/24 00:00:33;;;;;;;5.50;3.43;;;9.00;1.00;;;;;;5019358;28;20404;-83
2023/09/24 00:03:05;;;;;;;6.33;3.80;;;8.90;1.00;;;;;;5012324;28;20432;-82
2023/09/24 00:05:40;;;;;;;5.60;3.87;;;8.80;1.00;;;;;;5024236;28;20920;-84
2023/09/24 00:08:21;;;;;;;15.93;3.70;;;9.00;1.00;;;;;;5015519;28;20419;-82
2023/09/24 00:11:03;;;;;;;4.50;3.30;;;9.00;1.00;;;;;;5013416;28;20435;-83
2023/09/24 00:13:39;;;;;;;7.37;3.30;;;8.90;1.00;;;;;;5013309;28;20439;-82
2023/09/24 00:16:50;;;;;;;10.13;3.40;;;9.00;1.00;;;;;;4999032;28;21009;-81
2023/09/24 00:19:33;;;;;;;19.33;3.60;;;8.90;1.00;;;;;;5013066;28;20452;-82
2023/09/24 00:22:33;;;;;;;7.00;3.60;;;8.90;1.00;;;;;;5003115;28;20423;-82
2023/09/24 00:24:59;;;;;;;5.40;3.50;;;8.80;1.00;;;;;;5004272;28;20418;-82
2023/09/24 00:27:24;;;;;;;10.50;3.67;;;8.90;1.00;;;;;;5014500;28;20871;-82
2023/09/24 00:30:41;;;;;;;11.80;3.43;;;8.80;1.00;;;;;;5011375;28;20188;-82
2023/09/24 00:39:51;;;;;;;5.30;3.50;;;8.70;1.00;;;;;;5015466;28;20830;-82
2023/09/24 00:45:42;;;;;;;3.63;2.97;;;8.70;1.00;;;;;;5014602;28;20187;-83
2023/09/24 00:48:29;;;;;;;7.73;3.20;;;8.60;1.00;;;;;;5016901;28;20481;-83
2023/09/24 01:01:01;;;;;;;4.20;3.20;;;8.60;1.00;;;;;;5017612;28;20411;-83
2023/09/24 01:03:33;;;;;;;5.10;2.97;;;8.60;1.00;;;;;;5016472;28;20435;-82
2023/09/24 01:09:21;;;;;;;7.10;3.10;;;8.50;1.00;;;;;;4997714;28;20380;-82
2023/09/24 01:11:54;;;;;;;12.20;3.70;;;8.50;1.00;;;;;;5030395;28;20398;-82
2023/09/24 01:14:39;;;;;;;3.73;3.33;;;8.50;1.00;;;;;;5015961;28;20412;-82
2023/09/24 01:20:30;;;;;;;5.03;3.43;;;8.50;1.00;;;;;;5011134;28;20427;-83
2023/09/24 01:23:10;;;;;;;7.57;3.60;;;8.50;1.00;;;;;;5014922;28;20412;-83
2023/09/24 01:26:20;;;;;;;4.07;3.67;;;8.50;1.00;;;;;;4997611;28;20455;-83
2023/09/24 01:32:08;;;;;;;5.03;3.23;;;8.50;1.00;;;;;;4997107;28;20400;-83
2023/09/24 01:34:57;;;;;;;4.23;3.80;;;8.60;1.00;;;;;;5003431;28;20432;-82
2023/09/24 01:37:45;;;;;;;6.20;3.53;;;8.50;1.00;;;;;;5021427;28;20231;-82
2023/09/24 01:40:20;;;;;;;4.50;3.10;;;8.50;1.00;;;;;;5022309;28;20489;-83
2023/09/24 01:43:00;;;;;;;3.90;3.20;;;8.60;1.00;;;;;;4996010;28;20420;-82
2023/09/24 01:45:30;;;;;;;9.13;3.67;;;8.60;1.00;;;;;;5003043;28;20951;-82
2023/09/24 01:48:17;;;;;;;5.37;3.30;;;8.50;1.00;;;;;;5035316;28;20886;-82
2023/09/24 01:51:33;;;;;;;10.00;3.77;;;8.60;1.00;;;;;;5009984;28;20444;-83
2023/09/24 01:54:15;;;;;;;5.30;3.60;;;8.60;1.00;;;;;;5005955;28;20957;-83
2023/09/24 01:56:54;;;;;;;6.93;3.47;;;8.50;1.00;;;;;;5004356;28;20490;-83
2023/09/24 02:03:27;;;;;;;6.43;3.30;;;8.50;1.00;;;;;;5014372;28;20427;-83
2023/09/24 02:06:20;;;;;;;3.90;3.53;;;8.50;1.00;;;;;;5016493;28;20441;-83
2023/09/24 02:09:03;;;;;;;6.10;3.70;;;8.40;1.00;;;;;;4999138;28;20390;-83
2023/09/24 02:11:39;;;;;;;19.40;4.20;;;8.40;1.00;;;;;;5011287;28;20443;-83
2023/09/24 02:14:33;;;;;;;5.73;3.70;;;8.50;1.00;;;;;;5028152;28;20828;-83
2023/09/24 02:20:43;;;;;;;10.53;3.70;;;8.30;1.00;;;;;;5013941;28;20469;-83
2023/09/24 02:26:45;;;;;;;3.60;3.20;;;8.30;1.00;;;;;;5003704;28;20412;-83
2023/09/24 02:29:21;;;;;;;8.30;3.83;;;8.30;1.00;;;;;;5015747;28;20408;-83
2023/09/24 02:32:03;;;;;;;8.10;4.00;;;8.40;1.00;;;;;;4995918;28;20986;-82
2023/09/24 02:34:29;;;;;;;5.53;3.53;;;8.30;1.00;;;;;;5009672;28;20439;-82
2023/09/24 02:40:27;;;;;;;7.70;3.57;;;8.20;1.00;;;;;;5014745;28;20273;-82
2023/09/24 02:42:59;;;;;;;8.10;3.60;;;8.20;1.00;;;;;;5034263;28;20434;-82
2023/09/24 02:45:29;;;;;;;4.83;3.50;;;8.20;1.00;;;;;;5004037;28;20489;-82
2023/09/24 02:47:57;;;;;;;11.27;3.37;;;8.10;1.00;;;;;;5004992;28;20459;-82
2023/09/24 02:50:29;;;;;;;7.07;4.03;;;8.10;1.00;;;;;;5014517;28;20440;-82
2023/09/24 02:53:04;;;;;;;9.50;4.00;;;8.20;1.00;;;;;;5005337;28;20795;-81
2023/09/24 02:55:34;;;;;;;8.53;3.90;;;8.10;1.00;;;;;;5024042;28;20407;-82
2023/09/24 02:58:05;;;;;;;5.40;3.20;;;8.20;1.00;;;;;;5016583;28;20867;-82
2023/09/24 03:00:41;;;;;;;5.87;3.73;;;8.00;1.00;;;;;;5010253;28;20440;-82
2023/09/24 03:03:09;;;;;;;13.60;3.87;;;8.00;1.00;;;;;;5018491;28;20423;-82
2023/09/24 03:09:38;;;;;;;5.00;3.53;;;8.00;1.00;;;;;;5012356;28;20987;-82
2023/09/24 03:12:04;;;;;;;7.30;3.97;;;8.00;1.00;;;;;;5017008;28;20434;-83
2023/09/24 03:14:30;;;;;;;7.63;4.10;;;7.90;1.00;;;;;;5024092;28;20774;-83
2023/09/24 03:16:56;;;;;;;12.57;3.67;;;7.90;1.00;;;;;;5010613;28;20499;-83
2023/09/24 03:19:22;;;;;;;10.07;3.77;;;7.90;1.00;;;;;;5015849;28;20306;-83
2023/09/24 03:21:47;;;;;;;4.20;3.70;;;9.40;1.00;;;;;;5016969;28;20209;-89
2023/09/24 03:24:14;;;;;;;8.67;4.00;;;7.80;1.00;;;;;;5004219;28;20182;-91
2023/09/24 03:26:41;;;;;;;7.07;3.43;;;7.80;1.00;;;;;;5017663;28;20313;-90
2023/09/24 03:29:07;;;;;;;8.73;3.53;;;7.80;1.00;;;;;;5017048;28;20443;-90
2023/09/24 03:31:33;;;;;;;10.67;4.10;;;7.70;1.00;;;;;;5024839;28;20446;-89
2023/09/24 03:33:59;;;;;;;6.27;4.17;;;7.70;1.00;;;;;;5026770;28;20176;-90
2023/09/24 03:37:20;;;;;;;10.07;3.83;;;7.70;1.00;;;;;;5030214;28;20442;-83
2023/09/24 03:39:57;;;;;;;6.33;3.60;;;;;;;;;;5009747;28;20463;-83
2023/09/24 03:45:45;;;;;;;6.80;4.00;;;7.70;1.00;;;;;;5006713;28;20456;-84
2023/09/24 03:48:11;;;;;;;10.10;4.37;;;7.80;1.00;;;;;;5032580;28;20446;-84
2023/09/24 03:50:45;;;;;;;4.07;3.67;;;7.70;1.00;;;;;;5018580;28;21007;-84
2023/09/24 04:00:21;;;;;;;8.70;3.67;;;7.60;1.00;;;;;;5009573;28;20446;-83
2023/09/24 04:03:28;;;;;;;9.03;4.20;;;7.60;1.00;;;;;;5009255;28;20458;-83
2023/09/24 04:06:10;;;;;;;5.57;3.50;;;7.60;1.00;;;;;;5013957;28;20760;-91
2023/09/24 04:09:09;;;;;;;4.80;3.60;;;7.60;1.00;;;;;;5020412;28;20424;-90
2023/09/24 04:12:26;;;;;;;6.53;3.87;;;7.60;1.00;;;;;;5025415;28;20431;-90
2023/09/24 04:18:14;;;;;;;3.90;3.33;;;7.50;1.00;;;;;;5003779;28;20977;-91
2023/09/24 04:21:29;;;;;;;8.03;4.03;;;7.50;1.00;;;;;;5026449;28;20432;-83
2023/09/24 04:24:09;;;;;;;4.23;3.57;;;7.50;1.00;;;;;;4992663;28;20425;-83
2023/09/24 04:27:27;;;;;;;7.40;3.43;;;7.40;1.00;;;;;;5002722;28;20941;-83
2023/09/24 04:33:38;;;;;;;8.20;3.93;;;7.40;1.00;;;;;;4992029;28;20487;-83
2023/09/24 04:36:09;;;;;;;6.40;3.83;;;7.30;1.00;;;;;;4993094;28;20512;-91
2023/09/24 04:42:11;;;;;;;5.93;3.40;;;7.30;1.00;;;;;;5009940;28;20937;-91
2023/09/24 04:48:09;;;;;;;6.03;4.20;;;7.30;1.00;;;;;;5005464;28;20575;-90
2023/09/24 04:50:39;;;;;;;4.87;3.60;;;7.20;1.00;;;;;;4990099;28;20432;-90
2023/09/24 04:53:06;;;;;;;13.00;3.67;;;7.30;1.00;;;;;;4983400;28;20498;-91
2023/09/24 04:55:39;;;;;;;6.33;3.87;;;7.20;1.00;;;;;;5001098;28;20428;-91
2023/09/24 05:01:57;;;;;;;6.73;3.83;;;7.20;1.00;;;;;;5012891;28;20410;-90
2023/09/24 05:05:08;;;;;;;8.87;4.40;;;7.10;1.00;;;;;;5013192;28;20459;-91
2023/09/24 05:08:09;;;;;;;7.93;4.30;;;7.10;1.00;;;;;;5009140;28;20413;-83
2023/09/24 05:14:09;;;;;;;6.00;3.60;;;;;;;;;;5014690;28;20407;-83
2023/09/24 05:16:58;;;;;;;5.93;3.70;;;7.10;1.00;;;;;;5024679;28;20493;-83
2023/09/24 05:19:33;;;;;;;10.43;3.60;;;;;;;;;;5004467;28;20989;-83
2023/09/24 05:22:09;;;;;;;3.93;3.47;;;7.10;1.00;;;;;;5016981;28;20934;-91
2023/09/24 05:25:09;;;;;;;10.37;3.97;;;7.10;1.00;;;;;;5016171;28;20465;-91
2023/09/24 05:30:57;;;;;;;6.47;3.77;;;7.00;1.00;;;;;;5023456;28;20410;-91
2023/09/24 05:36:44;;;;;;;17.03;3.80;;;7.10;1.00;;;;;;5002035;28;20458;-90
2023/09/24 05:39:39;;;;;;;8.60;3.90;;;7.00;1.00;;;;;;5026758;28;20455;-91
2023/09/24 05:42:39;;;;;;;5.43;3.53;;;7.10;1.00;;;;;;5015763;28;20197;-90
2023/09/24 05:45:21;;;;;;;6.00;4.10;;;7.10;1.00;;;;;;5032929;28;20910;-91
2023/09/24 05:48:39;;;;;;;7.20;3.63;;;7.10;1.00;;;;;;5035908;28;20977;-90
2023/09/24 05:54:33;;;;;;;9.73;3.83;;;7.00;1.00;;;;;;5011204;28;20430;-91
2023/09/24 05:57:03;;;;;;;10.00;4.00;;;7.00;1.00;;;;;;5025367;28;20420;-91
2023/09/24 05:59:39;;;;;;;8.23;3.80;;;7.20;1.00;;;;;;5020777;28;20517;-90
2023/09/24 06:02:27;;;;;;;5.70;4.27;;;7.20;1.00;;;;;;5021490;28;20439;-91
2023/09/24 06:05:39;;;;;;;4.23;3.40;;;7.20;1.00;;;;;;5020870;28;20430;-91
2023/09/24 06:08:09;;;;;;;11.63;3.77;;;7.20;1.00;;;;;;5035488;28;20414;-91
2023/09/24 06:11:09;;;;;;;7.63;3.47;;;7.40;1.00;;;;;;5029226;28;20422;-91
2023/09/24 06:14:09;;;;;;;5.03;3.70;;;7.60;1.00;;;;;;5032086;28;20422;-91
2023/09/24 06:20:10;;;;;;;7.23;4.10;;;;;;;;;;5031930;28;20477;-90
2023/09/24 06:22:40;;;;;;;7.87;4.27;;;7.70;1.00;;;;;;5021691;28;20523;-91
2023/09/24 06:25:09;;;;;;;15.30;3.90;;;7.90;1.00;;;;;;5014785;28;20800;-91
2023/09/24 06:27:43;;;;;;;4.03;3.43;;;;;;;;;;5023449;28;21050;-91
2023/09/24 06:30:33;;;;;;;10.13;3.60;;;8.00;1.00;;;;;;5022391;28;20424;-91
2023/09/24 06:33:09;;;;;;;8.33;3.20;;;8.10;1.00;;;;;;5030426;28;20431;-91
2023/09/24 06:36:09;;;;;;;4.20;3.23;;;8.20;1.00;;;;;;5032509;28;21014;-91
2023/09/24 06:38:39;;;;;;;4.70;3.93;;;8.20;1.00;;;;;;5006159;28;20460;-84
2023/09/24 06:41:05;;;;;;;9.40;4.07;;;8.70;1.00;;;;;;5020325;28;20457;-84
2023/09/24 06:43:33;;;;;;;4.27;3.67;;;8.60;1.00;;;;;;5020308;28;20814;-83
2023/09/24 06:46:09;;;;;;;4.20;2.80;;;8.60;1.00;;;;;;4998155;28;20508;-84
2023/09/24 06:48:39;;;;;;;6.90;3.00;;;8.70;1.00;;;;;;5025269;28;20415;-84
2023/09/24 06:51:39;;;;;;;3.27;2.97;;;9.30;1.20;;;;;;5026008;28;20837;-90
2023/09/24 06:54:09;;;;;;;5.53;2.97;;;9.00;1.70;;;;;;5013953;28;20443;-91
2023/09/24 06:56:39;;;;;;;3.37;3.00;;;9.10;1.70;;;;;;5015234;28;20957;-91
2023/09/24 06:59:10;;;;;;;7.07;2.93;;;9.20;3.30;;;;;;5015290;28;20464;-91
2023/09/24 07:08:19;;;;;;;3.87;2.80;;;9.60;4.70;;;;;;5015268;28;20411;-84
2023/09/24 07:11:24;;;;;;;4.57;3.93;;;9.80;5.50;;;;;;5015955;28;20417;-83
2023/09/24 07:13:52;;;;;;;13.83;4.20;;;10.00;5.90;;;;;;4951520;29;20937;-83
2023/09/24 07:16:39;;;;;;;5.03;3.90;;;10.10;6.10;;;;;;4966568;28;20419;-84
2023/09/24 07:19:39;;;;;;;5.87;4.07;;;10.20;6.70;;;;;;4942332;29;20556;-83
2023/09/24 07:25:40;;;;;;;8.07;4.80;;;10.60;8.50;;;;;;4947670;29;20406;-91
2023/09/24 07:28:27;;;;;;;7.30;4.60;;;10.80;9.00;;;;;;4926898;29;20796;-91
2023/09/24 07:30:53;;;;;;;15.33;5.60;;;11.00;9.30;;;;;;4942167;28;20472;-92
2023/09/24 07:33:33;;;;;;;10.00;5.80;;;11.10;10.20;;;;;;4936418;29;20532;-87
2023/09/24 07:36:39;;;;;;;8.33;5.00;;;11.20;12.10;;;;;;4945095;28;20457;-87
2023/09/24 07:39:09;;;;;;;12.10;6.17;;;11.40;9.70;;;;;;4940625;28;20943;-91
2023/09/24 07:41:35;;;;;;;16.27;6.90;;;11.60;10.40;;;;;;4968280;28;20426;-91
2023/09/24 07:44:00;;;;;;;10.63;6.40;;;11.90;1.00;;;;;;4940859;29;20381;-91
2023/09/24 07:46:39;;;;;;;11.73;6.63;;;;;;;;;;4955157;29;20539;-91
2023/09/24 07:49:05;;;;;;;7.67;5.90;;;12.10;1.00;;;;;;5028001;28;20178;-91
2023/09/24 07:51:31;;;;;;;18.50;6.30;;;12.20;1.00;;;;;;5028124;28;20411;-90
2023/09/24 07:53:57;;;;;;;10.90;5.60;;;12.40;1.00;;;;;;5004697;28;20719;-91
2023/09/24 07:57:09;;;;;;;6.47;4.97;;;12.40;1.00;;;;;;5013102;28;20268;-91
2023/09/24 07:59:39;;;;;;;5.57;4.57;;;12.60;1.00;;;;;;5003099;28;20558;-91
2023/09/24 08:02:33;;;;;;;8.90;4.20;;;12.70;1.00;;;;;;5020113;28;20873;-91
2023/09/24 08:05:09;;;;;;;4.70;3.87;;;12.90;1.00;;;;;;5014534;28;20437;-91
2023/09/24 08:07:36;;;;;;;4.30;3.43;;;12.90;1.00;;;;;;5018357;28;20385;-91
2023/09/24 08:10:09;;;;;;;4.40;3.70;;;13.00;1.00;;;;;;5020332;28;20428;-91
2023/09/24 08:12:39;;;;;;;7.43;3.87;;;13.20;1.00;;;;;;5013242;28;20476;-91
2023/09/24 08:15:09;;;;;;;4.53;3.30;;;13.20;1.00;;;;;;5027894;28;20481;-91
2023/09/24 08:17:35;;;;;;;3.13;2.50;;;13.30;1.00;;;;;;5013473;28;20420;-92
2023/09/24 08:20:03;;;;;;;6.33;3.00;;;13.50;1.00;;;;;;5012748;28;20465;-91
2023/09/24 08:23:03;;;;;;;3.63;2.40;;;13.50;1.00;;;;;;5011470;28;20249;-92
2023/09/24 08:26:20;;;;;;;7.83;2.77;;;13.70;1.00;;;;;;5011597;28;20432;-91
2023/09/24 08:28:46;;;;;;;3.60;2.97;;;13.80;1.00;;;;;;5010145;28;20428;-91
2023/09/24 08:31:37;;;;;;;2.93;2.50;;;13.90;1.00;;;;;;5042182;28;20418;-92
2023/09/24 08:34:39;;;;;;;5.47;3.07;;;14.00;1.00;;;;;;5020475;28;20197;-90
2023/09/24 08:37:09;;;;;;;5.20;2.60;;;14.10;1.00;;;;;;5012697;28;20457;-87
2023/09/24 08:39:39;;;;;;;3.30;1.97;;;14.20;1.00;;;;;;5013514;28;20554;-86
2023/09/24 08:42:19;;;;;;;4.60;2.47;;;14.30;1.00;;;;;;5011806;28;20441;-86
2023/09/24 08:45:33;;;;;;;14.47;3.13;;;14.40;1.00;;;;;;5014157;28;20522;-86
2023/09/24 08:48:33;;;;;;;5.23;2.90;;;14.50;1.00;;;;;;5024641;28;20460;-86
2023/09/24 08:51:39;;;;;;;8.30;2.90;;;14.60;1.00;;;;;;5030574;28;20410;-86
2023/09/24 08:54:33;;;;;;;4.90;2.77;;;14.60;1.00;;;;;;5009836;28;20455;-85
2023/09/24 08:57:27;;;;;;;6.07;2.97;;;14.60;1.00;;;;;;5008644;28;20412;-89
2023/09/24 09:00:06;;;;;;;4.67;2.60;;;14.80;1.00;;;;;;5022343;28;20484;-87
2023/09/24 09:03:05;;;;;;;4.60;2.90;;;14.90;1.00;;;;;;5029532;28;20453;-86
2023/09/24 09:06:03;;;;;;;3.03;2.70;;;15.00;1.00;;;;;;5021695;28;20438;-82
2023/09/24 09:08:50;;;;;;;5.00;2.27;;;15.20;1.00;;;;;;5032456;28;20796;-85
2023/09/24 09:11:39;;;;;;;2.43;2.10;;;15.20;1.00;;;;;;5022331;28;20439;-86
2023/09/24 09:14:07;;;;;;;6.60;2.40;;;15.30;1.00;;;;;;5016407;28;20406;-86
2023/09/24 09:20:03;;;;;;;5.10;2.67;;;15.50;1.00;;;;;;5022109;28;20890;-86
2023/09/24 09:26:41;;;;;;;7.20;1.97;;;15.60;1.00;;;;;;5017176;28;20420;-86
2023/09/24 09:29:19;;;;;;;1.90;1.80;;;15.80;1.00;;;;;;4976574;28;20388;-87
2023/09/24 09:32:03;;;;;;;7.97;2.10;;;;;;;;;;4993833;28;20462;-86
2023/09/24 09:35:03;;;;;;;6.63;2.40;;;16.10;1.00;;;;;;5002504;28;20609;-87
2023/09/24 09:41:03;;;;;;;5.17;2.07;;;16.30;1.00;;;;;;4998601;28;20453;-86
2023/09/24 09:43:33;;;;;;;5.30;1.97;;;16.40;1.00;;;;;;4990865;28;20438;-86
2023/09/24 09:46:22;;;;;;;2.90;2.07;;;16.40;1.00;;;;;;5009724;28;20473;-86
2023/09/24 09:49:10;;;;;;;2.43;1.80;;;16.60;1.00;;;;;;4981446;28;20510;-86
2023/09/24 09:52:15;;;;;;;9.67;1.90;;;16.60;1.00;;;;;;4984355;28;20935;-86
2023/09/24 09:55:33;;;;;;;2.40;1.80;;;16.70;1.00;;;;;;4960489;28;20527;-86
2023/09/24 09:58:33;;;;;;;3.60;1.93;;;16.90;1.00;;;;;;4989134;28;20394;-87
2023/09/24 10:04:22;;;;;;;3.67;2.33;;;17.00;1.00;;;;;;5001147;28;20457;-86
2023/09/24 10:11:05;;;;;;;2.47;1.70;;;17.20;1.00;;;;;;5031079;28;20440;-92
2023/09/24 10:14:05;;;;;;;5.60;2.00;;;17.30;1.00;;;;;;5014172;28;20412;-91
2023/09/24 10:16:36;;;;;;;3.63;2.17;;;17.40;1.00;;;;;;5021491;28;20970;-91
2023/09/24 10:19:39;;;;;;;5.70;2.00;;;17.50;1.00;;;;;;5019411;28;20459;-91
2023/09/24 10:22:47;;;;;;;3.03;1.80;;;17.60;1.00;;;;;;5020118;28;20437;-92
2023/09/24 10:26:05;;;;;;;2.97;1.57;;;17.60;1.00;;;;;;5021273;28;20439;-90
2023/09/24 10:32:29;;;;;;;3.30;1.90;;;17.80;1.00;;;;;;5035945;28;20456;-93
2023/09/24 10:35:33;;;;;;;3.63;1.77;;;17.90;1.00;;;;;;5019591;28;20516;-94
2023/09/24 10:38:45;;;;;;;3.43;1.93;;;18.00;1.00;;;;;;5021147;28;20497;-86
2023/09/24 10:41:10;;;;;;;4.10;1.80;;;18.10;1.00;;;;;;5011419;28;20489;-87
2023/09/24 10:43:36;;;;;;;3.07;2.03;;;18.20;1.00;;;;;;4995523;28;20459;-87
2023/09/24 10:46:27;;;;;;;2.60;1.43;;;18.20;1.00;;;;;;5014642;28;20187;-87
2023/09/24 10:49:08;;;;;;;4.07;1.90;;;18.40;1.00;;;;;;5034784;28;20174;-87
2023/09/24 10:51:33;;;;;;;1.90;1.47;;;18.50;1.00;;;;;;5018850;28;20427;-87
2023/09/24 10:57:25;;;;;;;4.27;1.40;;;18.60;1.00;;;;;;5015136;28;20243;-87
2023/09/24 11:00:04;;;;;;;3.57;1.30;;;18.70;1.00;;;;;;5020752;28;20446;-87
2023/09/24 11:03:03;;;;;;;4.50;1.50;;;18.80;1.00;;;;;;5016004;28;20438;-87
2023/09/24 11:09:23;;;;;;;4.43;1.60;;;19.00;1.00;;;;;;5034726;28;20450;-91
2023/09/24 11:15:24;;;;;;;1.73;1.50;;;19.30;1.00;;;;;;5001069;28;20565;-89
2023/09/24 11:21:11;;;;;;;4.80;1.30;;;19.50;1.00;;;;;;4976572;28;20422;-92
2023/09/24 11:23:51;;;;;;;2.43;1.50;;;19.40;1.00;;;;;;4977837;28;20429;-87
2023/09/24 11:26:29;;;;;;;5.47;1.90;;;19.50;1.00;;;;;;4993851;28;20182;-86
2023/09/24 11:29:08;;;;;;;7.03;1.43;;;19.30;1.00;;;;;;5004315;28;20410;-86
2023/09/24 11:32:22;;;;;;;2.73;1.47;;;19.40;1.00;;;;;;4977041;28;20414;-87
2023/09/24 11:35:11;;;;;;;4.93;1.50;;;19.50;1.00;;;;;;5003472;28;20429;-87
2023/09/24 11:41:08;;;;;;;2.60;1.30;;;19.70;1.00;;;;;;4993466;28;20518;-87
2023/09/24 11:43:36;;;;;;;2.73;1.20;;;19.80;1.00;;;;;;5004505;28;20498;-86
2023/09/24 11:46:34;;;;;;;1.17;1.10;;;19.80;1.00;;;;;;4975656;28;20457;-87
2023/09/24 11:49:05;;;;;;;1.30;1.20;;;19.70;1.00;;;;;;5024461;28;20420;-86
2023/09/24 11:51:31;;;;;;;2.90;1.50;;;19.80;1.00;;;;;;5023349;28;20440;-87
2023/09/24 11:54:03;;;;;;;1.33;1.20;;;19.90;1.00;;;;;;5013758;28;20458;-86
2023/09/24 11:59:51;;;;;;;1.90;1.23;;;20.00;1.00;;;;;;5001356;28;20504;-87
2023/09/24 12:06:35;;;;;;;1.30;1.20;;;20.20;1.00;;;;;;5025880;28;20188;-86
2023/09/24 12:09:05;;;;;;;2.07;1.20;;;20.20;1.00;;;;;;5021260;28;20425;-87
2023/09/24 12:11:51;;;;;;;1.50;1.13;;;20.40;1.00;;;;;;5012756;28;20434;-86
2023/09/24 12:14:33;;;;;;;1.73;1.10;;;20.40;1.00;;;;;;5020658;28;20429;-86
2023/09/24 12:20:34;;;;;;;2.40;0.90;;;20.80;1.00;;;;;;5005784;28;20468;-86
2023/09/24 12:23:06;;;;;;;1.80;1.00;;;20.90;1.00;;;;;;5010218;28;20445;-87
2023/09/24 12:25:39;;;;;;;3.70;1.00;;;21.00;1.00;;;;;;5016220;28;20441;-89
2023/09/24 12:31:27;;;;;;;1.83;1.00;;;21.10;1.00;;;;;;5021297;28;20438;-89
2023/09/24 12:34:03;;;;;;;1.30;1.10;;;21.20;1.00;;;;;;5025751;28;20424;-90
2023/09/24 12:36:33;;;;;;;1.33;1.00;;;21.10;1.00;;;;;;5030941;28;20544;-90
2023/09/24 12:39:03;;;;;;;3.33;1.43;;;21.20;1.00;;;;;;5012983;28;20458;-90
2023/09/24 12:42:03;;;;;;;1.57;0.90;;;21.30;1.00;;;;;;5012403;28;20436;-90
2023/09/24 12:45:03;;;;;;;1.57;1.10;;;21.20;1.00;;;;;;5017876;28;20832;-90
2023/09/24 12:50:51;;;;;;;2.07;1.23;;;21.30;1.00;;;;;;5028205;28;20507;-90
2023/09/24 12:53:21;;;;;;;0.70;0.70;;;21.40;1.00;;;;;;5023087;28;20521;-90
2023/09/24 13:03:10;;;;;;;3.93;1.10;;;21.60;1.00;;;;;;5012368;28;20793;-93
2023/09/24 13:16:03;;;;;;;1.27;1.10;;;21.90;1.00;;;;;;5023186;28;20409;-89
2023/09/24 13:19:03;;;;;;;1.23;0.90;;;21.90;1.00;;;;;;5029063;28;20492;-89
2023/09/24 13:25:33;;;;;;;2.03;0.80;;;21.80;1.00;;;;;;5014165;28;20398;-94
2023/09/24 13:28:03;;;;;;;1.47;0.70;;;21.90;1.00;;;;;;5012568;28;20431;-93
2023/09/24 13:30:40;;;;;;;1.63;0.77;;;21.90;1.00;;;;;;5023304;28;20411;-92
2023/09/24 13:36:35;;;;;;;1.93;0.83;;;21.80;1.00;;;;;;5017246;28;20396;-93
2023/09/24 13:49:07;;;;;;;1.43;0.80;;;21.80;1.00;;;;;;5016903;28;20447;-91
2023/09/24 13:51:35;;;;;;;1.93;0.70;;;21.90;1.00;;;;;;5011573;28;20466;-90
2023/09/24 13:54:03;;;;;;;3.90;0.93;;;21.90;1.00;;;;;;5015860;28;20173;-90
2023/09/24 13:56:29;;;;;;;1.63;0.77;;;22.10;1.00;;;;;;5012794;28;20863;-87
2023/09/24 13:58:57;;;;;;;1.73;0.80;;;22.10;1.00;;;;;;5015337;28;20563;-90
2023/09/24 14:01:34;;;;;;;0.90;0.90;;;22.20;1.00;;;;;;5019145;28;20939;-86
2023/09/24 14:04:03;;;;;;;1.70;0.73;;;22.20;1.00;;;;;;5018687;28;20411;-86
2023/09/24 14:07:03;;;;;;;1.10;1.00;;;22.10;1.00;;;;;;5013540;28;20509;-86
2023/09/24 14:12:33;;;;;;;3.17;0.83;;;22.10;1.00;;;;;;5016910;28;20815;-84
2023/09/24 14:15:04;;;;;;;2.50;0.87;;;22.20;1.00;;;;;;5009045;28;20420;-83
2023/09/24 14:17:33;;;;;;;3.23;0.80;;;22.30;1.00;;;;;;5008594;28;20417;-85
2023/09/24 14:20:15;;;;;;;1.03;0.80;;;22.20;1.00;;;;;;5018810;28;20456;-85
2023/09/24 14:23:03;;;;;;;1.33;0.90;;;22.30;1.00;;;;;;5014771;28;20433;-86
2023/09/24 14:29:15;;;;;;;1.40;0.70;;;22.30;1.00;;;;;;5011712;28;20431;-89
2023/09/24 14:32:04;;;;;;;1.80;0.80;;;22.20;1.00;;;;;;5010043;28;20423;-87
2023/09/24 14:38:33;;;;;;;0.80;0.80;;;22.10;1.00;;;;;;5018156;28;20431;-86
2023/09/24 14:41:03;;;;;;;1.93;0.90;;;22.00;1.00;;;;;;5015012;28;20480;-86
2023/09/24 14:43:34;;;;;;;0.90;0.77;;;22.00;1.00;;;;;;5011396;28;20476;-86
2023/09/24 14:46:05;;;;;;;1.27;0.90;;;22.00;1.00;;;;;;5029410;28;20425;-85
2023/09/24 14:48:34;;;;;;;1.13;0.90;;;22.10;1.00;;;;;;5016127;28;20922;-86
2023/09/24 14:51:04;;;;;;;0.90;0.90;;;22.10;1.00;;;;;;5009111;28;20423;-85
2023/09/24 14:57:15;;;;;;;1.30;1.00;;;22.20;1.00;;;;;;5024204;28;20437;-85
2023/09/24 15:00:03;;;;;;;1.70;0.80;;;22.30;1.00;;;;;;5012576;28;20457;-86
2023/09/24 15:06:15;;;;;;;1.00;0.83;;;22.30;1.00;;;;;;5008358;28;20421;-85
2023/09/24 15:09:21;;;;;;;1.00;0.90;;;22.40;1.00;;;;;;5017035;28;20425;-86
2023/09/24 15:11:58;;;;;;;0.90;0.80;;;22.50;1.00;;;;;;5015364;28;20191;-87
2023/09/24 15:17:46;;;;;;;1.10;0.90;;;23.90;1.00;;;;;;5009538;28;20507;-87
2023/09/24 15:26:55;;;;;;;0.87;0.70;;;29.10;1.00;;;;;;5015087;28;20523;-91
2023/09/24 15:32:44;;;;;;;1.90;0.70;;;30.20;1.00;;;;;;5014809;28;20274;-91
2023/09/24 15:38:32;;;;;;;0.70;0.63;;;31.00;1.00;;;;;;4995494;28;20468;-90
2023/09/24 15:44:19;;;;;;;2.33;0.60;;;31.70;1.00;;;;;;5014255;28;20196;-89
2023/09/24 15:46:57;;;;;;;0.90;0.90;;;32.10;1.00;;;;;;5013849;28;20826;-89
2023/09/24 15:52:47;;;;;;;0.80;0.70;;;32.30;1.00;;;;;;5015616;28;21010;-89
2023/09/24 15:55:13;;;;;;;0.93;0.60;;;32.20;1.00;;;;;;5012433;28;20436;-89
2023/09/24 15:57:40;;;;;;;0.70;0.60;;;32.20;1.00;;;;;;5002406;28;20440;-86
2023/09/24 16:00:08;;;;;;;1.97;0.73;;;32.20;1.00;;;;;;5013247;28;20468;-86
2023/09/24 16:02:45;;;;;;;0.60;0.60;;;31.70;1.00;;;;;;5017834;28;20809;-87
2023/09/24 16:08:33;;;;;;;2.00;0.70;;;31.30;1.00;;;;;;5027239;28;20412;-87
2023/09/24 16:14:21;;;;;;;2.70;0.60;;;31.50;1.00;;;;;;5017498;28;20402;-88
2023/09/24 16:20:57;;;;;;;1.20;0.80;;;31.50;1.00;;;;;;5021467;28;20303;-88
2023/09/24 16:23:33;;;;;;;1.90;0.80;;;30.70;1.00;;;;;;5010105;28;20470;-88
2023/09/24 16:29:30;;;;;;;7.80;1.00;;;29.10;1.00;;;;;;5014282;28;20389;-89
2023/09/24 16:32:39;;;;;;;3.33;1.03;;;27.80;1.00;;;;;;5008339;28;20510;-89
2023/09/24 16:42:09;;;;;;;7.80;4.07;;;24.50;1.00;;;;;;5018827;28;20414;-92
2023/09/24 16:44:51;;;;;;;5.70;3.00;;;23.60;1.00;;;;;;5012884;28;20451;-89
2023/09/24 16:54:02;;;;;;;1.10;1.00;;;21.10;1.00;;;;;;5017431;28;20437;-86
2023/09/24 17:00:10;;;;;;;3.50;1.10;;;20.50;1.00;;;;;;5013177;28;20553;-85
2023/09/24 17:02:36;;;;;;;0.77;0.77;;;19.90;1.00;;;;;;5019258;28;20444;-85
2023/09/24 17:05:09;;;;;;;2.87;1.10;;;19.60;1.00;;;;;;5017484;28;20577;-84
2023/09/24 17:07:35;;;;;;;1.53;0.80;;;19.20;1.00;;;;;;5010661;28;20209;-83
2023/09/24 17:13:23;;;;;;;0.90;0.90;;;18.40;1.00;;;;;;5025589;28;20223;-84
2023/09/24 17:19:45;;;;;;;2.60;0.80;;;18.00;1.00;;;;;;5037459;28;20203;-85
2023/09/24 17:29:07;;;;;;;1.43;1.33;;;17.00;1.00;;;;;;5021816;28;20456;-84
2023/09/24 17:31:52;;;;;;;3.43;1.07;;;16.80;1.00;;;;;;5020525;28;20422;-84
2023/09/24 17:34:19;;;;;;;3.47;1.57;;;16.60;1.00;;;;;;5019196;28;20175;-84
2023/09/24 17:43:45;;;;;;;1.10;0.97;;;15.80;1.00;;;;;;5011601;28;20397;-84
2023/09/24 17:49:33;;;;;;;1.20;1.10;;;15.40;1.00;;;;;;5025149;28;20431;-84
2023/09/24 17:55:22;;;;;;;6.50;1.30;;;15.00;1.00;;;;;;5008494;28;20274;-84
2023/09/24 18:01:39;;;;;;;3.07;1.80;;;14.80;1.00;;;;;;5016280;28;20402;-85
2023/09/24 18:04:45;;;;;;;4.63;1.50;;;14.70;1.00;;;;;;5013110;28;20435;-88
2023/09/24 18:07:33;;;;;;;4.63;1.47;;;14.50;1.00;;;;;;5026737;28;20409;-84
2023/09/24 18:13:45;;;;;;;1.47;1.37;;;14.30;1.00;;;;;;5009049;28;20417;-84
2023/09/24 18:16:15;;;;;;;4.67;2.43;;;14.10;1.00;;;;;;4995374;28;20403;-82
2023/09/24 18:18:41;;;;;;;5.80;1.63;;;14.00;1.00;;;;;;5032719;28;20974;-84
2023/09/24 18:21:51;;;;;;;4.30;2.07;;;14.00;1.00;;;;;;5027342;28;20427;-84
2023/09/24 18:27:38;;;;;;;5.47;1.90;;;13.70;1.00;;;;;;5003639;28;20549;-85
2023/09/24 18:30:39;;;;;;;6.30;1.63;;;13.70;1.00;;;;;;5033026;28;20490;-84
2023/09/24 18:36:33;;;;;;;2.33;2.13;;;13.50;1.00;;;;;;5024509;28;20447;-85
2023/09/24 18:39:04;;;;;;;9.37;2.93;;;13.50;1.00;;;;;;5018396;28;21003;-83
2023/09/24 18:41:30;;;;;;;4.63;2.03;;;13.40;1.00;;;;;;5024689;28;20405;-84
2023/09/24 18:43:55;;;;;;;5.93;2.50;;;13.30;1.00;;;;;;5020812;28;20403;-84
2023/09/24 18:46:21;;;;;;;9.10;2.57;;;13.30;1.00;;;;;;5016530;28;20187;-84
2023/09/24 18:49:03;;;;;;;5.63;2.50;;;13.20;1.00;;;;;;5012623;28;20185;-85
2023/09/24 18:51:41;;;;;;;3.50;2.60;;;13.10;1.00;;;;;;5014926;28;20271;-85
2023/09/24 18:57:29;;;;;;;2.40;2.20;;;13.00;1.00;;;;;;5023746;28;20373;-84
2023/09/24 18:59:58;;;;;;;8.53;2.00;;;13.00;1.00;;;;;;5020008;28;20875;-87
2023/09/24 19:06:33;;;;;;;4.53;2.30;;;12.90;1.00;;;;;;5000516;28;20795;-90
2023/09/24 19:08:59;;;;;;;2.60;1.93;;;12.80;1.00;;;;;;5013304;28;20522;-81
2023/09/24 19:11:24;;;;;;;4.30;2.13;;;12.90;1.00;;;;;;5019727;28;20498;-81
2023/09/24 19:13:58;;;;;;;10.40;2.10;;;12.70;1.00;;;;;;5025128;28;20212;-81
2023/09/24 19:16:27;;;;;;;3.13;2.30;;;13.30;1.00;;;;;;5018891;28;20226;-81
2023/09/24 19:22:15;;;;;;;10.43;3.20;;;12.60;1.00;;;;;;5011267;28;20406;-81
2023/09/24 19:25:21;;;;;;;7.90;2.90;;;13.00;1.00;;;;;;5014557;28;20902;-82